Time;durP1;ratioP1;P1;durP2;ratioP2;P2;SDS_P1;SDS_P2;PMS_P1;PMS_P2;Temp;Humidity;BMP_temperature;BMP_pressure;BME280_temperature;BME280_humidity;BME280_pressure;Samples;Min_cycle;Max_cycle;Signal;HPM_P1;HPM_P2
2022/10/04 11:33:30;;;;;;;;;;;;;;;;;;;;;
2022/10/04 11:46:03;;;;;;;4.25;2.42;;;;;;;;;;5049861;28;20116;-56
2022/10/04 11:48:47;;;;;;;6.60;3.75;;;;;;;;;;5060152;28;20520;-57
2022/10/04 11:51:50;;;;;;;4.57;3.08;;;;;;;;;;5067794;28;20017;-57
2022/10/04 11:54:42;;;;;;;5.32;2.50;;;;;;;;;;5067600;28;20111;-53
2022/10/04 12:00:36;;;;;;;5.25;2.60;;;;;;;;;;5063462;28;20036;-56
2022/10/04 12:03:29;;;;;;;6.57;2.30;;;;;;;;;;5067919;28;20142;-57
2022/10/04 12:06:21;;;;;;;7.57;2.83;;;;;;;;;;5068063;28;20033;-57
2022/10/04 12:09:09;;;;;;;5.20;2.53;;;;;;;;;;5050495;28;20028;-57
2022/10/04 12:15:04;;;;;;;7.93;3.00;;;;;;;;;;5067205;28;20043;-55
2022/10/04 12:21:39;;;;;;;5.07;2.53;;;;;;;;;;5068162;28;20029;-55
2022/10/04 12:24:31;;;;;;;4.53;2.55;;;;;;;;;;5051465;28;20025;-55
2022/10/04 12:37:12;;;;;;;4.07;2.35;;;;;;;;;;5092560;28;20038;-55
2022/10/04 12:40:07;;;;;;;5.78;3.13;;;;;;;;;;5015107;28;20560;-55
2022/10/04 12:42:51;;;;;;;5.82;2.40;;;;;;;;;;4998960;28;20033;-55
2022/10/04 12:45:55;;;;;;;;;;;;;;;;;;;;;
2022/10/04 12:51:45;;;;;;;4.07;1.80;;;;;;;;;;5082774;28;20081;-56
2022/10/04 12:57:52;;;;;;;;;;;;;;;;;;;;;
2022/10/04 13:03:47;;;;;;;3.70;2.10;;;;;;;;;;5039468;28;20037;-55
2022/10/04 13:06:28;;;;;;;5.60;2.72;;;;;;;;;;5111911;28;20047;-54
2022/10/04 13:09:13;;;;;;;7.43;2.65;;;;;;;;;;5117456;28;20110;-56
2022/10/04 13:12:04;;;;;;;3.63;3.03;;;;;;;;;;5117757;28;20031;-55
2022/10/04 13:14:50;;;;;;;4.47;2.40;;;;;;;;;;5118291;28;20313;-55
2022/10/04 13:20:39;;;;;;;4.85;2.45;;;;;;;;;;5084066;28;20063;-55
2022/10/04 13:23:46;;;;;;;6.40;2.75;;;;;;;;;;5117350;28;20023;-55
2022/10/04 13:26:55;;;;;;;3.75;2.45;;;;;;;;;;5015333;28;20053;-56
2022/10/04 13:36:39;;;;;;;;;;;;;;;;;;;;;
2022/10/04 13:39:30;;;;;;;2.95;2.10;;;;;;;;;;5045288;28;20049;-55
2022/10/04 13:42:02;;;;;;;2.20;1.88;;;;;;;;;;5028287;28;20034;-55
2022/10/04 13:44:49;;;;;;;4.43;2.25;;;;;;;;;;5043393;28;20037;-55
2022/10/04 13:50:51;;;;;;;4.20;1.98;;;;;;;;;;5127534;28;20093;-56
2022/10/04 13:56:45;;;;;;;2.60;2.05;;;;;;;;;;5127610;28;20525;-56
2022/10/04 13:59:34;;;;;;;8.50;2.22;;;;;;;;;;5036066;28;20038;-55
2022/10/04 14:02:21;;;;;;;3.95;1.85;;;;;;;;;;4986654;28;20035;-56
2022/10/04 14:05:09;;;;;;;3.13;1.55;;;;;;;;;;5097919;28;20028;-56
2022/10/04 14:11:20;;;;;;;4.18;1.80;;;;;;;;;;5117467;28;20034;-56
2022/10/04 14:14:14;;;;;;;4.05;1.90;;;;;;;;;;5108467;28;20062;-55
2022/10/04 14:17:02;;;;;;;3.88;2.00;;;;;;;;;;5115471;28;20035;-57
2022/10/04 14:22:59;;;;;;;4.80;1.92;;;;;;;;;;5105370;28;20081;-57
2022/10/04 14:25:51;;;;;;;4.40;1.48;;;;;;;;;;5127724;28;20046;-57
2022/10/04 14:28:59;;;;;;;2.85;1.92;;;;;;;;;;5142361;27;20445;-57
2022/10/04 14:31:47;;;;;;;3.95;2.22;;;;;;;;;;5128887;27;20047;-56
2022/10/04 14:34:46;;;;;;;3.60;2.05;;;;;;;;;;5147652;27;20027;-57
2022/10/04 14:37:31;;;;;;;4.43;2.40;;;;;;;;;;5147025;27;20027;-57
2022/10/04 14:40:09;;;;;;;2.88;1.60;;;;;;;;;;5148858;27;20019;-57
2022/10/04 14:42:54;;;;;;;3.63;2.10;;;;;;;;;;5148372;27;20038;-57
2022/10/04 14:45:43;;;;;;;4.10;1.88;;;;;;;;;;5148049;27;20031;-57
2022/10/04 14:48:32;;;;;;;1.95;1.65;;;;;;;;;;5147336;27;20098;-57
2022/10/04 14:51:37;;;;;;;10.57;2.35;;;;;;;;;;5146623;27;20023;-56
2022/10/04 14:54:40;;;;;;;2.53;1.58;;;;;;;;;;5147393;27;20087;-57
2022/10/04 15:00:22;;;;;;;3.22;1.90;;;;;;;;;;5146791;27;20049;-57
2022/10/04 15:03:17;;;;;;;5.00;1.52;;;;;;;;;;5136559;27;20072;-57
2022/10/04 15:06:02;;;;;;;4.75;1.90;;;;;;;;;;5116606;28;20043;-56
2022/10/04 15:08:56;;;;;;;2.03;1.40;;;;;;;;;;5139342;27;20027;-57
2022/10/04 15:12:20;;;;;;;;;;;;;;;;;;;;;
2022/10/04 15:15:10;;;;;;;3.53;1.15;;;;;;;;;;5029308;28;20051;-55
2022/10/04 15:24:09;;;;;;;2.55;1.60;;;;;;;;;;5024588;28;20033;-57
2022/10/04 15:27:02;;;;;;;;;;;;;;;;;;;;;
2022/10/04 15:29:58;;;;;;;2.40;1.55;;;;;;;;;;5032145;28;20371;-57
2022/10/04 15:36:11;;;;;;;3.28;1.73;;;;;;;;;;5031847;28;20029;-57
2022/10/04 15:39:12;;;;;;;2.38;1.38;;;;;;;;;;5015176;28;20038;-57
2022/10/04 15:42:05;;;;;;;3.83;1.65;;;;;;;;;;5040488;28;20060;-55
2022/10/04 15:44:58;;;;;;;4.93;2.22;;;;;;;;;;4998749;28;20041;-56
2022/10/04 15:50:40;;;;;;;2.90;1.75;;;;;;;;;;5124458;28;20030;-57
2022/10/04 15:56:57;;;;;;;2.92;1.73;;;;;;;;;;5051530;28;20049;-55
2022/10/04 16:00:07;;;;;;;;;;;;;;;;;;;;;
2022/10/04 16:03:06;;;;;;;2.90;2.05;;;;;;;;;;5132414;27;20045;-58
2022/10/04 16:09:12;;;;;;;7.10;2.30;;;;;;;;;;5054858;28;20029;-56
2022/10/04 16:12:15;;;;;;;5.43;2.58;;;;;;;;;;5131106;27;20371;-56
2022/10/04 16:15:13;;;;;;;9.95;2.85;;;;;;;;;;5120648;27;20019;-55
2022/10/04 16:17:57;;;;;;;7.30;5.22;;;;;;;;;;5137372;27;20066;-56
2022/10/04 16:20:52;;;;;;;;;;;;;;;;;;;;;
2022/10/04 16:23:34;;;;;;;;;;;;;;;;;;;;;
2022/10/04 16:26:14;;;;;;;5.20;3.60;;;;;;;;;;5138798;27;20118;-55
2022/10/04 16:29:15;;;;;;;;;;;;;;;;;;;;;
2022/10/04 16:32:21;;;;;;;4.10;2.70;;;;;;;;;;5135111;27;20141;-57
2022/10/04 16:38:18;;;;;;;4.03;2.33;;;;;;;;;;5123715;27;20035;-57
2022/10/04 16:43:56;;;;;;;5.75;2.53;;;;;;;;;;5138251;27;20028;-58
2022/10/04 16:46:52;;;;;;;6.80;3.33;;;;;;;;;;5138282;27;20428;-57
2022/10/04 16:49:40;;;;;;;4.45;3.17;;;;;;;;;;5030217;27;20458;-57
2022/10/04 16:52:46;;;;;;;5.78;3.60;;;;;;;;;;5137170;27;20054;-56
2022/10/04 16:55:59;;;;;;;;;;;;;;;;;;;;;
2022/10/04 17:01:42;;;;;;;7.55;5.22;;;;;;;;;;5139581;27;20038;-55
2022/10/04 17:04:40;;;;;;;11.40;6.07;;;;;;;;;;5143366;27;20027;-57
2022/10/04 17:07:13;;;;;;;5.75;4.38;;;;;;;;;;5145950;27;20029;-56
2022/10/04 17:10:08;;;;;;;5.70;3.72;;;;;;;;;;5144411;27;20468;-58
2022/10/04 17:12:55;;;;;;;8.80;4.90;;;;;;;;;;5142769;27;20034;-57
2022/10/04 17:15:52;;;;;;;7.55;5.97;;;;;;;;;;5142509;27;20012;-56
2022/10/04 17:18:44;;;;;;;6.32;4.75;;;;;;;;;;5051690;27;20029;-57
2022/10/04 17:25:16;;;;;;;6.40;4.40;;;;;;;;;;5052128;27;20064;-56
2022/10/04 17:28:11;;;;;;;6.15;3.88;;;;;;;;;;5065058;27;20400;-56
2022/10/04 17:30:56;;;;;;;5.13;3.72;;;;;;;;;;5142237;27;20023;-56
2022/10/04 17:33:31;;;;;;;4.63;3.70;;;;;;;;;;5113759;27;20118;-57
2022/10/04 17:36:49;;;;;;;9.25;4.80;;;;;;;;;;5121470;27;20054;-55
2022/10/04 17:40:00;;;;;;;6.38;4.50;;;;;;;;;;5017928;28;20044;-56
2022/10/04 17:43:09;;;;;;;;;;;;;;;;;;;;;
2022/10/04 17:45:54;;;;;;;5.90;4.63;;;;;;;;;;5034987;28;20109;-57
2022/10/04 17:57:35;;;;;;;7.78;5.18;;;;;;;;;;5124958;27;20038;-57
2022/10/04 18:00:22;;;;;;;8.23;6.47;;;;;;;;;;5088649;28;20049;-57
2022/10/04 18:03:12;;;;;;;11.52;7.63;;;;;;;;;;5093330;28;20056;-56
2022/10/04 18:09:18;;;;;;;6.72;4.82;;;;;;;;;;5083617;28;20395;-54
2022/10/04 18:11:48;;;;;;;6.97;5.03;;;;;;;;;;5092874;28;20534;-57
2022/10/04 18:14:36;;;;;;;7.45;5.82;;;;;;;;;;5092683;28;20033;-55
2022/10/04 18:17:13;;;;;;;5.80;4.15;;;;;;;;;;5092221;28;20029;-57
2022/10/04 18:20:06;;;;;;;4.72;3.80;;;;;;;;;;5081767;28;20086;-57
2022/10/04 18:22:59;;;;;;;6.18;4.35;;;;;;;;;;5075426;28;20449;-57
2022/10/04 18:25:32;;;;;;;4.78;4.28;;;;;;;;;;5091938;28;20097;-58
2022/10/04 18:28:38;;;;;;;;;;;;;;;;;;;;;
2022/10/04 18:31:41;;;;;;;5.45;4.20;;;;;;;;;;5110499;27;20073;-57
2022/10/04 18:34:39;;;;;;;5.78;4.03;;;;;;;;;;5112830;28;20020;-58
2022/10/04 18:37:31;;;;;;;6.97;4.13;;;;;;;;;;5060179;27;20035;-57
2022/10/04 18:40:35;;;;;;;4.15;3.42;;;;;;;;;;5133947;27;20061;-57
2022/10/04 18:43:44;;;;;;;4.60;3.58;;;;;;;;;;5029543;28;20410;-55
2022/10/04 18:46:23;;;;;;;4.10;3.00;;;;;;;;;;5031500;28;20121;-56
2022/10/04 18:49:36;;;;;;;7.63;4.85;;;;;;;;;;5015568;28;20025;-57
2022/10/04 18:52:21;;;;;;;6.38;4.82;;;;;;;;;;5008117;28;20061;-56
2022/10/04 18:55:01;;;;;;;5.35;3.58;;;;;;;;;;5124091;27;20027;-57
2022/10/04 19:01:58;;;;;;;7.47;3.42;;;;;;;;;;5100081;27;20023;-55
2022/10/04 19:03:30;;;;;;;5.72;3.75;;;;;;;;;;5119509;27;20037;-56
2022/10/04 19:06:33;;;;;;;4.63;3.17;;;;;;;;;;5134895;27;20058;-56
2022/10/04 19:09:28;;;;;;;5.22;3.03;;;;;;;;;;5135222;27;20042;-56
2022/10/04 19:12:28;;;;;;;4.53;3.67;;;;;;;;;;5116282;27;20024;-56
2022/10/04 19:15:08;;;;;;;7.32;4.18;;;;;;;;;;5135524;28;20345;-56
2022/10/04 19:21:10;;;;;;;9.65;3.92;;;;;;;;;;5092175;28;20023;-54
2022/10/04 19:27:50;;;;;;;;;;;;;;;;;;;;;
2022/10/04 19:30:36;;;;;;;4.00;3.38;;;;;;;;;;5123798;28;20042;-56
2022/10/04 19:33:28;;;;;;;5.65;4.30;;;;;;;;;;5133880;28;20080;-55
2022/10/04 19:39:20;;;;;;;5.03;3.58;;;;;;;;;;5138249;27;20519;-57
2022/10/04 19:42:16;;;;;;;4.78;4.13;;;;;;;;;;5138408;27;20057;-57
2022/10/04 19:45:08;;;;;;;6.68;4.60;;;;;;;;;;5120224;27;20065;-55
2022/10/04 19:53:46;;;;;;;5.57;3.65;;;;;;;;;;5074488;28;20029;-57
2022/10/04 19:56:49;;;;;;;;;;;;;;;;;;;;;
2022/10/04 20:00:03;;;;;;;4.57;3.53;;;;;;;;;;5074907;28;20393;-52
2022/10/04 20:02:38;;;;;;;5.68;4.18;;;;;;;;;;5070173;28;20024;-56
2022/10/04 20:05:54;;;;;;;;;;;;;;;;;;;;;
2022/10/04 20:08:48;;;;;;;5.05;3.30;;;;;;;;;;5059563;28;20044;-53
2022/10/04 20:11:37;;;;;;;5.10;3.58;;;;;;;;;;5074973;28;20510;-55
2022/10/04 20:17:49;;;;;;;;;;;;;;;;;;;;;
2022/10/04 20:32:49;;;;;;;4.68;3.80;;;;;;;;;;5138199;27;20042;-54
2022/10/04 20:35:41;;;;;;;5.07;4.00;;;;;;;;;;5119617;27;20233;-55
2022/10/04 20:42:27;;;;;;;;;;;;;;;;;;;;;
2022/10/04 20:44:41;;;;;;;4.95;4.25;;;;;;;;;;5116711;27;20108;-55
2022/10/04 20:47:36;;;;;;;5.40;4.05;;;;;;;;;;5137861;27;20027;-55
2022/10/04 20:56:25;;;;;;;5.13;2.83;;;;;;;;;;5137866;27;20045;-56
2022/10/04 21:02:11;;;;;;;4.75;3.45;;;;;;;;;;5063025;28;20032;-56
2022/10/04 21:14:26;;;;;;;4.57;3.65;;;;;;;;;;5066615;28;20036;-56
2022/10/04 21:20:36;;;;;;;6.03;4.35;;;;;;;;;;5026755;28;20032;-55
2022/10/04 21:23:28;;;;;;;6.00;3.97;;;;;;;;;;5027109;28;20113;-55
2022/10/04 21:26:15;;;;;;;4.95;4.45;;;;;;;;;;5027449;28;20559;-55
2022/10/04 21:28:58;;;;;;;;;;;;;;;;;;;;;
2022/10/04 21:34:24;;;;;;;5.28;4.22;;;;;;;;;;5087231;28;20096;-54
2022/10/04 21:37:28;;;;;;;4.60;3.78;;;;;;;;;;5070765;28;20119;-53
2022/10/04 21:43:15;;;;;;;4.22;3.83;;;;;;;;;;5150229;27;20468;-54
2022/10/04 21:45:44;;;;;;;4.68;3.70;;;;;;;;;;5150340;27;20031;-54
2022/10/04 21:51:56;;;;;;;5.15;3.80;;;;;;;;;;5125717;27;20027;-55
2022/10/04 21:54:50;;;;;;;12.38;4.68;;;;;;;;;;5109842;27;20119;-52
2022/10/04 22:00:42;;;;;;;6.18;4.78;;;;;;;;;;5133666;27;20020;-53
2022/10/04 22:03:20;;;;;;;5.38;4.32;;;;;;;;;;5150631;27;20023;-55
2022/10/04 22:06:21;;;;;;;6.38;4.13;;;;;;;;;;5131595;27;20038;-55
2022/10/04 22:09:02;;;;;;;;;;;;;;;;;;5151320;27;20039;-55
2022/10/04 22:11:29;;;;;;;5.10;3.75;;;;;;;;;;5150548;27;19908;-53
2022/10/04 22:14:04;;;;;;;5.15;4.53;;;;;;;;;;5149950;27;20052;-55
2022/10/04 22:23:26;;;;;;;;;;;;;;;;;;;;;
2022/10/04 22:25:55;;;;;;;7.30;5.63;;;;;;;;;;5133546;27;20049;-53
2022/10/04 22:28:47;;;;;;;5.28;4.50;;;;;;;;;;5145114;27;20053;-51
2022/10/04 22:31:47;;;;;;;7.32;4.20;;;;;;;;;;5143709;27;20055;-54
2022/10/04 22:34:42;;;;;;;9.45;5.45;;;;;;;;;;5024684;28;20041;-51
2022/10/04 22:37:42;;;;;;;6.78;4.75;;;;;;;;;;4998679;28;20063;-54
2022/10/04 22:40:35;;;;;;;8.73;5.55;;;;;;;;;;5144600;27;20031;-54
2022/10/04 22:49:43;;;;;;;5.95;4.90;;;;;;;;;;5070647;27;20075;-51
2022/10/04 22:52:19;;;;;;;7.33;5.27;;;;;;;;;;5040096;28;20030;-53
2022/10/04 22:55:39;;;;;;;6.35;4.45;;;;;;;;;;5104871;27;20042;-49
2022/10/04 22:58:36;;;;;;;7.10;4.97;;;;;;;;;;5133679;27;20077;-55
2022/10/04 23:02:06;;;;;;;6.75;5.45;;;;;;;;;;5068102;27;20149;-53
2022/10/04 23:04:36;;;;;;;8.55;5.55;;;;;;;;;;5079805;27;20024;-54
2022/10/04 23:07:29;;;;;;;8.63;6.28;;;;;;;;;;5144770;27;20444;-53
2022/10/04 23:10:01;;;;;;;5.90;5.18;;;;;;;;;;5144428;27;20043;-52
2022/10/04 23:15:33;;;;;;;6.75;6.05;;;;;;;;;;5106936;28;20028;-52
2022/10/04 23:18:46;;;;;;;6.63;5.75;;;;;;;;;;5128259;28;20027;-55
2022/10/04 23:21:31;;;;;;;5.88;4.80;;;;;;;;;;5044701;28;20064;-52
2022/10/04 23:24:14;;;;;;;;;;;;;;;;;;;;;
2022/10/04 23:38:32;;;;;;;6.25;5.35;;;;;;;;;;5065897;28;20045;-55
2022/10/04 23:41:23;;;;;;;10.05;5.53;;;;;;;;;;5068890;28;20052;-53
2022/10/04 23:44:35;;;;;;;7.23;5.37;;;;;;;;;;5146746;28;20061;-53
2022/10/04 23:47:25;;;;;;;6.30;5.65;;;;;;;;;;5045739;28;20276;-52
2022/10/04 23:50:08;;;;;;;;;;;;;;;;;;;;;
2022/10/04 23:52:47;;;;;;;6.97;5.40;;;;;;;;;;5148531;28;20062;-55
2022/10/04 23:55:50;;;;;;;5.30;4.05;;;;;;;;;;5148374;28;20026;-53
2022/10/04 23:58:47;;;;;;;6.88;4.90;;;;;;;;;;5149230;28;20034;-55
